Niteroi, Brazil
Current Conditions -  °F | °C
As of 7:00 AM on Tuesday 21 Oct 2014 (Local Time) from SBRJ Reporting Station
Overcast Overcast  
Wind Chill: 68°   Ceiling: 1500
Heat Index: 68°   Visibility: 4mi
Dew Point: 66°   Wind: 12mph
Humidity: 94%   Direction: 190°S
Pressure: 30.06"   Gusts: NA
Location:  22.9°S, 43.13°W
Report Text: SBRJ 210900Z 19010KT 6000 SCT007 BKN015 OVC040 20/19 Q1018 REDZ
Loading
Personal Weather Stations






























Interactive Weather Map
Tropical Storm Tracking
New forecast layout! Learn more

10-Day Weather Forecast

Advertisements
Track Severe Weather on mobile